Time;durP1;ratioP1;P1;durP2;ratioP2;P2;SDS_P1;SDS_P2;PMS_P1;PMS_P2;Temp;Humidity;BMP_temperature;BMP_pressure;BME280_temperature;BME280_humidity;BME280_pressure;Samples;Min_cycle;Max_cycle;Signal;HPM_P1;HPM_P2
2022/07/15 00:01:12;;;;;;;0.77;0.55;;;18.30;61.80;;;;;;5051416;28;20053;-65
2022/07/15 00:03:38;;;;;;;1.05;0.35;;;18.30;61.80;;;;;;5049211;28;20036;-65
2022/07/15 00:06:03;;;;;;;1.02;0.63;;;18.20;61.80;;;;;;5053361;28;20467;-65
2022/07/15 00:08:29;;;;;;;0.57;0.50;;;18.20;61.90;;;;;;5065541;28;20041;-65
2022/07/15 00:10:55;;;;;;;10.63;0.93;;;18.20;62.00;;;;;;5050300;28;20063;-64
2022/07/15 00:13:23;;;;;;;0.60;0.50;;;18.20;62.10;;;;;;5050590;28;20022;-65
2022/07/15 00:15:49;;;;;;;0.45;0.45;;;18.20;62.20;;;;;;5064736;28;20079;-65
2022/07/15 00:18:15;;;;;;;0.90;0.50;;;18.10;62.30;;;;;;5047841;28;20037;-65
2022/07/15 00:20:40;;;;;;;1.50;0.90;;;18.10;62.30;;;;;;5048485;28;20100;-65
2022/07/15 00:23:07;;;;;;;6.35;0.88;;;18.00;62.30;;;;;;5048150;28;20037;-65
2022/07/15 00:25:51;;;;;;;7.57;0.80;;;18.10;62.60;;;;;;5050534;28;20044;-65
2022/07/15 00:28:17;;;;;;;2.42;1.05;;;18.00;62.50;;;;;;5036844;28;20048;-65
2022/07/15 00:30:43;;;;;;;1.75;0.52;;;17.90;62.60;;;;;;5050030;28;20419;-65
2022/07/15 00:33:09;;;;;;;1.60;0.73;;;17.90;62.80;;;;;;5042240;28;20140;-65
2022/07/15 00:35:37;;;;;;;0.45;0.40;;;17.90;62.80;;;;;;5057582;28;20033;-65
2022/07/15 00:38:04;;;;;;;0.73;0.73;;;17.80;62.80;;;;;;5049258;28;20063;-65
2022/07/15 00:40:30;;;;;;;2.85;0.88;;;17.80;62.80;;;;;;5047752;28;20025;-65
2022/07/15 00:42:56;;;;;;;2.85;1.17;;;17.80;62.90;;;;;;5048971;28;20025;-65
2022/07/15 00:45:25;;;;;;;2.60;0.75;;;17.80;63.10;;;;;;5053337;28;20095;-65
2022/07/15 00:47:55;;;;;;;0.77;0.77;;;17.70;63.10;;;;;;5041878;28;20112;-65
2022/07/15 00:50:25;;;;;;;5.05;1.17;;;17.70;63.20;;;;;;5037756;28;20083;-65
2022/07/15 00:52:55;;;;;;;1.42;0.82;;;17.70;63.40;;;;;;5049033;28;20021;-65
2022/07/15 00:55:22;;;;;;;1.05;0.77;;;17.70;63.50;;;;;;5047439;28;20491;-65
2022/07/15 00:57:51;;;;;;;1.27;1.00;;;17.60;63.50;;;;;;5050983;28;20018;-65
2022/07/15 01:00:17;;;;;;;0.68;0.68;;;17.60;63.50;;;;;;5048960;28;20029;-65
2022/07/15 01:02:50;;;;;;;2.15;0.52;;;17.60;63.60;;;;;;5049021;28;20056;-65
2022/07/15 01:05:18;;;;;;;1.88;0.45;;;17.50;63.60;;;;;;5048176;28;20071;-65
2022/07/15 01:07:44;;;;;;;0.60;0.60;;;17.50;63.70;;;;;;5048072;28;20017;-65
2022/07/15 01:10:10;;;;;;;0.85;0.70;;;17.50;63.80;;;;;;5049331;28;20472;-65
2022/07/15 01:12:40;;;;;;;0.85;0.50;;;17.40;63.90;;;;;;5062442;28;20082;-65
2022/07/15 01:15:07;;;;;;;3.05;0.85;;;17.40;63.90;;;;;;5049531;28;20115;-65
2022/07/15 01:17:33;;;;;;;2.17;1.02;;;17.40;63.90;;;;;;5048430;28;20120;-65
2022/07/15 01:19:59;;;;;;;1.48;0.93;;;17.40;64.00;;;;;;5044831;28;20120;-65
2022/07/15 01:22:25;;;;;;;0.52;0.52;;;17.40;64.10;;;;;;5047497;28;20029;-64
2022/07/15 01:24:51;;;;;;;2.47;0.88;;;17.40;64.20;;;;;;5044954;28;20033;-65
2022/07/15 01:27:17;;;;;;;1.10;0.82;;;17.40;64.20;;;;;;5049012;28;20029;-65
2022/07/15 01:29:43;;;;;;;3.83;0.60;;;17.40;64.20;;;;;;5048280;28;20044;-65
2022/07/15 01:32:09;;;;;;;5.78;0.98;;;17.40;64.30;;;;;;5048851;28;20091;-65
2022/07/15 01:34:34;;;;;;;1.35;0.80;;;17.40;64.40;;;;;;5046299;28;20032;-65
2022/07/15 01:37:00;;;;;;;0.50;0.50;;;17.40;64.50;;;;;;5048989;28;20078;-65
2022/07/15 01:39:26;;;;;;;2.40;1.25;;;17.40;64.50;;;;;;5049078;28;20143;-65
2022/07/15 01:41:51;;;;;;;0.47;0.47;;;17.50;64.70;;;;;;5048140;28;20549;-65
2022/07/15 01:44:17;;;;;;;2.67;0.80;;;17.50;64.70;;;;;;5048791;28;20492;-65
2022/07/15 01:46:43;;;;;;;6.35;0.80;;;17.50;64.70;;;;;;5045001;28;20126;-71
2022/07/15 01:49:29;;;;;;;3.30;0.77;;;17.60;64.80;;;;;;5046523;28;20060;-71
2022/07/15 01:51:56;;;;;;;3.10;0.70;;;17.60;64.70;;;;;;5046887;28;20021;-71
2022/07/15 01:54:23;;;;;;;2.22;0.70;;;17.60;64.80;;;;;;5062890;28;20596;-71
2022/07/15 01:56:52;;;;;;;1.67;1.08;;;17.60;64.70;;;;;;5052015;28;20023;-71
2022/07/15 01:59:18;;;;;;;1.95;0.93;;;17.70;64.70;;;;;;5039748;28;20045;-71
2022/07/15 02:01:44;;;;;;;0.70;0.50;;;17.70;64.80;;;;;;5047358;28;20424;-65
2022/07/15 02:04:11;;;;;;;0.57;0.57;;;17.70;64.70;;;;;;5038027;28;20033;-65
2022/07/15 02:06:37;;;;;;;1.55;0.55;;;17.70;64.70;;;;;;5050172;28;20035;-65
2022/07/15 02:09:03;;;;;;;1.65;0.68;;;17.70;64.80;;;;;;5046124;28;20557;-65
2022/07/15 02:11:29;;;;;;;4.20;0.90;;;17.70;64.80;;;;;;5054756;28;20025;-71
2022/07/15 02:13:58;;;;;;;0.93;0.50;;;17.70;64.90;;;;;;5052328;28;20195;-71
2022/07/15 02:16:24;;;;;;;1.02;0.70;;;17.70;65.00;;;;;;5051222;28;20029;-71
2022/07/15 02:18:50;;;;;;;1.27;0.93;;;17.70;65.00;;;;;;5039560;28;20045;-71
2022/07/15 02:21:16;;;;;;;1.25;0.50;;;17.70;65.00;;;;;;5050962;28;20093;-71
2022/07/15 02:23:41;;;;;;;0.65;0.52;;;17.70;64.90;;;;;;5049919;28;20636;-71
2022/07/15 02:26:07;;;;;;;0.40;0.40;;;17.70;64.90;;;;;;5053258;28;20104;-71
2022/07/15 02:28:33;;;;;;;0.68;0.68;;;17.70;65.00;;;;;;5066811;28;20041;-72
2022/07/15 02:30:59;;;;;;;1.00;0.70;;;17.70;65.10;;;;;;5051841;28;20090;-71
2022/07/15 02:33:25;;;;;;;2.03;0.60;;;17.70;65.30;;;;;;5050209;28;20068;-71
2022/07/15 02:35:50;;;;;;;0.70;0.70;;;17.70;65.20;;;;;;5051944;28;20115;-70
2022/07/15 02:38:17;;;;;;;1.48;0.80;;;17.80;65.30;;;;;;5064520;28;20045;-71
2022/07/15 02:40:43;;;;;;;1.95;0.60;;;17.80;65.30;;;;;;5052313;28;20033;-71
2022/07/15 02:43:09;;;;;;;0.60;0.50;;;17.80;65.40;;;;;;5055131;28;20342;-70
2022/07/15 02:45:36;;;;;;;0.85;0.50;;;17.80;65.30;;;;;;5050905;28;20114;-70
2022/07/15 02:48:02;;;;;;;1.45;0.90;;;17.80;65.30;;;;;;5067769;28;20021;-70
2022/07/15 02:50:29;;;;;;;1.02;0.80;;;17.80;65.40;;;;;;5055784;28;20052;-70
2022/07/15 02:52:54;;;;;;;2.22;0.43;;;17.80;65.40;;;;;;5049841;28;20025;-70
2022/07/15 02:55:20;;;;;;;1.75;0.65;;;17.70;65.40;;;;;;5045244;28;20051;-71
2022/07/15 02:57:46;;;;;;;0.63;0.63;;;17.70;65.50;;;;;;5047898;28;20037;-71
2022/07/15 03:00:14;;;;;;;0.65;0.52;;;17.70;65.40;;;;;;5051411;28;20400;-71
2022/07/15 03:02:41;;;;;;;1.85;0.80;;;17.70;65.30;;;;;;5037660;28;20041;-71
2022/07/15 03:05:07;;;;;;;0.70;0.55;;;17.80;65.40;;;;;;5050637;28;20781;-71
2022/07/15 03:07:33;;;;;;;2.55;0.82;;;17.70;65.10;;;;;;5062282;28;20037;-71
2022/07/15 03:09:59;;;;;;;0.45;0.43;;;17.70;65.20;;;;;;5042548;28;20083;-71
2022/07/15 03:12:25;;;;;;;1.63;0.90;;;17.80;65.20;;;;;;5045105;28;20280;-70
2022/07/15 03:14:50;;;;;;;0.82;0.57;;;17.80;65.20;;;;;;5050175;28;20025;-70
2022/07/15 03:17:16;;;;;;;0.30;0.30;;;17.80;65.30;;;;;;5049570;28;20485;-71
2022/07/15 03:19:42;;;;;;;0.70;0.70;;;17.80;65.30;;;;;;5038526;28;20098;-64
2022/07/15 03:22:08;;;;;;;0.60;0.52;;;17.80;65.30;;;;;;5051215;28;20033;-64
2022/07/15 03:24:34;;;;;;;3.10;0.70;;;17.80;65.50;;;;;;5050144;28;20486;-65
2022/07/15 03:27:00;;;;;;;0.65;0.28;;;17.70;65.40;;;;;;5042350;28;20038;-64
2022/07/15 03:29:28;;;;;;;0.85;0.75;;;17.70;65.40;;;;;;5046142;28;20033;-65
2022/07/15 03:31:55;;;;;;;1.02;0.70;;;17.70;65.40;;;;;;5043408;28;20032;-64
2022/07/15 03:34:20;;;;;;;0.88;0.68;;;17.70;65.50;;;;;;5045839;28;20365;-64
2022/07/15 03:36:46;;;;;;;2.38;0.88;;;17.70;65.40;;;;;;5050784;28;20067;-64
2022/07/15 03:39:12;;;;;;;1.55;0.88;;;17.70;65.50;;;;;;5047928;28;20082;-70
2022/07/15 03:41:38;;;;;;;0.73;0.73;;;17.70;65.50;;;;;;5041364;28;20049;-70
2022/07/15 03:44:04;;;;;;;2.63;0.80;;;17.70;65.40;;;;;;5038449;28;20514;-71
2022/07/15 03:46:30;;;;;;;1.42;0.65;;;17.70;65.40;;;;;;5048313;28;20037;-71
2022/07/15 03:48:56;;;;;;;1.13;0.73;;;17.70;65.40;;;;;;5059035;28;20067;-70
2022/07/15 03:51:24;;;;;;;0.85;0.77;;;17.70;65.50;;;;;;5047858;28;20121;-71
2022/07/15 03:53:51;;;;;;;1.10;0.70;;;17.70;65.30;;;;;;5056757;28;20111;-70
2022/07/15 03:56:17;;;;;;;3.83;0.57;;;17.70;65.30;;;;;;5038160;28;20496;-70
2022/07/15 03:58:44;;;;;;;1.75;0.70;;;17.70;65.40;;;;;;5060839;28;20029;-70
2022/07/15 04:01:10;;;;;;;0.45;0.35;;;17.70;65.40;;;;;;5042453;28;20155;-70
2022/07/15 04:03:36;;;;;;;0.68;0.55;;;17.60;65.50;;;;;;5053928;28;20032;-70
2022/07/15 04:06:02;;;;;;;0.30;0.30;;;17.70;65.50;;;;;;5050451;28;20032;-70
2022/07/15 04:08:27;;;;;;;1.85;0.80;;;17.70;65.50;;;;;;5048611;28;20112;-71
2022/07/15 04:10:55;;;;;;;0.82;0.63;;;17.70;65.50;;;;;;5049541;28;20028;-64
2022/07/15 04:13:20;;;;;;;4.20;1.25;;;17.70;65.40;;;;;;5044127;28;20083;-64
2022/07/15 04:15:46;;;;;;;1.95;0.50;;;17.70;65.40;;;;;;5046997;28;20449;-71
2022/07/15 04:18:12;;;;;;;0.88;0.70;;;17.80;65.50;;;;;;5037368;28;20033;-70
2022/07/15 04:20:37;;;;;;;3.97;1.17;;;17.80;65.60;;;;;;5030762;28;20033;-71
2022/07/15 04:23:03;;;;;;;0.50;0.50;;;17.80;65.60;;;;;;5049013;28;20075;-70
2022/07/15 04:25:29;;;;;;;3.75;0.85;;;17.80;65.50;;;;;;5047750;28;20037;-70
2022/07/15 04:27:55;;;;;;;0.40;0.40;;;17.80;65.50;;;;;;5048215;28;20033;-70
2022/07/15 04:30:21;;;;;;;2.55;0.95;;;17.80;65.50;;;;;;5048618;28;20487;-70
2022/07/15 04:32:47;;;;;;;0.68;0.68;;;17.80;65.40;;;;;;5049122;28;20109;-71
2022/07/15 04:35:12;;;;;;;1.85;0.75;;;17.80;65.50;;;;;;5045885;28;20028;-70
2022/07/15 04:37:38;;;;;;;0.25;0.25;;;17.70;65.40;;;;;;5048611;28;20510;-70
2022/07/15 04:40:07;;;;;;;3.40;0.80;;;17.70;65.50;;;;;;5049400;28;20035;-70
2022/07/15 04:42:32;;;;;;;1.52;0.50;;;17.70;65.60;;;;;;5058404;28;20055;-71
2022/07/15 04:44:58;;;;;;;1.02;0.40;;;17.70;65.70;;;;;;5058521;28;20480;-70
2022/07/15 04:47:24;;;;;;;1.73;0.85;;;17.70;65.60;;;;;;5046437;28;20384;-70
2022/07/15 04:52:34;;;;;;;0.63;0.63;;;17.60;65.70;;;;;;5045668;28;20114;-70
2022/07/15 04:55:00;;;;;;;0.57;0.47;;;17.70;65.80;;;;;;5048650;28;20112;-71
2022/07/15 04:57:25;;;;;;;0.60;0.52;;;17.60;65.80;;;;;;5048728;28;20025;-70
2022/07/15 04:59:51;;;;;;;0.38;0.30;;;17.70;65.70;;;;;;5049577;28;20033;-65
2022/07/15 05:02:17;;;;;;;1.15;0.63;;;17.70;65.80;;;;;;5049457;28;20095;-64
2022/07/15 05:04:42;;;;;;;1.95;0.90;;;17.70;65.80;;;;;;5078383;28;20401;-64
2022/07/15 05:07:08;;;;;;;2.50;0.63;;;17.70;65.80;;;;;;5068012;28;20033;-70
2022/07/15 05:09:34;;;;;;;1.35;0.60;;;17.70;65.70;;;;;;5043555;28;20033;-64
2022/07/15 05:12:00;;;;;;;1.17;0.50;;;17.70;65.60;;;;;;5061354;28;20076;-71
2022/07/15 05:14:26;;;;;;;3.03;0.70;;;17.70;65.60;;;;;;5049043;28;20013;-71
2022/07/15 05:16:51;;;;;;;0.57;0.50;;;17.70;65.50;;;;;;5051338;28;20021;-65
2022/07/15 05:19:17;;;;;;;6.13;0.55;;;17.70;65.60;;;;;;5034333;28;20090;-69
2022/07/15 05:21:43;;;;;;;0.55;0.40;;;17.60;65.60;;;;;;5047583;28;20064;-70
2022/07/15 05:24:08;;;;;;;2.95;0.82;;;17.70;65.70;;;;;;5044834;28;20037;-71
2022/07/15 05:26:34;;;;;;;0.52;0.43;;;17.70;65.70;;;;;;5049070;28;20048;-70
2022/07/15 05:29:00;;;;;;;0.52;0.40;;;17.70;65.60;;;;;;5047909;28;20404;-70
2022/07/15 05:31:25;;;;;;;1.08;0.60;;;17.80;65.50;;;;;;5065277;28;20024;-65
2022/07/15 05:33:52;;;;;;;1.80;0.60;;;17.80;65.50;;;;;;5045640;28;20403;-64
2022/07/15 05:36:18;;;;;;;1.33;0.80;;;17.90;65.50;;;;;;5044289;28;20052;-65
2022/07/15 05:38:44;;;;;;;5.30;1.13;;;17.90;65.40;;;;;;5045898;28;20043;-65
2022/07/15 05:41:10;;;;;;;0.40;0.40;;;18.00;65.20;;;;;;5036084;28;20034;-71
2022/07/15 05:43:37;;;;;;;0.50;0.50;;;18.00;65.10;;;;;;5041510;28;20037;-65
2022/07/15 05:46:02;;;;;;;1.60;0.80;;;18.10;65.10;;;;;;5045108;28;20399;-65
2022/07/15 05:48:28;;;;;;;1.35;0.63;;;18.10;65.00;;;;;;5048472;28;20040;-71
2022/07/15 05:50:54;;;;;;;3.75;0.75;;;18.20;65.00;;;;;;5046032;28;20036;-70
2022/07/15 05:53:20;;;;;;;0.50;0.50;;;18.20;65.00;;;;;;5060878;28;20100;-65
2022/07/15 05:55:45;;;;;;;0.30;0.30;;;18.20;64.90;;;;;;5044478;28;20029;-65
2022/07/15 05:58:11;;;;;;;0.63;0.50;;;18.20;64.90;;;;;;5034583;28;20029;-71
2022/07/15 06:00:37;;;;;;;0.82;0.75;;;18.30;64.70;;;;;;5040273;28;20115;-65
2022/07/15 06:03:04;;;;;;;0.80;0.60;;;18.30;64.70;;;;;;5033673;28;20064;-63
2022/07/15 06:05:31;;;;;;;1.27;0.88;;;18.30;64.60;;;;;;5038245;28;20033;-63
2022/07/15 06:07:57;;;;;;;4.60;0.52;;;18.30;64.70;;;;;;5039035;28;20409;-70
2022/07/15 06:10:23;;;;;;;0.77;0.50;;;18.30;64.90;;;;;;5035604;28;20098;-64
2022/07/15 06:12:49;;;;;;;2.40;0.52;;;18.40;64.80;;;;;;5045838;28;20025;-70
2022/07/15 06:15:15;;;;;;;2.05;0.98;;;18.50;64.60;;;;;;5040917;28;20055;-71
2022/07/15 06:17:41;;;;;;;2.67;0.45;;;18.60;64.40;;;;;;5045897;28;20021;-64
2022/07/15 06:20:07;;;;;;;0.70;0.50;;;18.60;64.30;;;;;;5048607;28;20041;-65
2022/07/15 06:22:33;;;;;;;2.90;0.60;;;18.70;64.10;;;;;;5046113;28;20130;-70
2022/07/15 06:24:59;;;;;;;0.40;0.30;;;18.80;63.90;;;;;;5056191;28;20021;-71
2022/07/15 06:27:25;;;;;;;0.68;0.40;;;18.80;63.70;;;;;;5067894;28;20079;-71
2022/07/15 06:29:51;;;;;;;1.50;0.65;;;18.90;63.60;;;;;;5068499;28;20040;-71
2022/07/15 06:32:18;;;;;;;0.63;0.57;;;18.90;63.50;;;;;;5068043;28;20041;-71
2022/07/15 06:34:44;;;;;;;6.20;0.65;;;19.00;63.40;;;;;;5066597;28;20028;-70
2022/07/15 06:37:10;;;;;;;1.20;0.57;;;19.10;63.30;;;;;;5063651;28;20546;-70
2022/07/15 06:39:36;;;;;;;0.30;0.30;;;19.20;63.20;;;;;;5067011;28;20078;-71
2022/07/15 06:42:02;;;;;;;0.60;0.50;;;19.20;62.90;;;;;;5058597;28;20032;-71
2022/07/15 06:44:28;;;;;;;2.40;0.45;;;19.40;62.60;;;;;;5068277;28;20069;-71
2022/07/15 06:46:55;;;;;;;0.93;0.60;;;19.40;62.20;;;;;;5068324;28;20077;-70
2022/07/15 06:49:21;;;;;;;1.45;0.82;;;19.50;62.60;;;;;;5068009;28;20017;-71
2022/07/15 06:51:47;;;;;;;0.60;0.50;;;19.50;61.60;;;;;;5068288;28;20055;-70
2022/07/15 06:54:13;;;;;;;0.43;0.38;;;19.50;61.60;;;;;;5067036;28;20021;-70
2022/07/15 06:56:39;;;;;;;1.98;0.40;;;19.60;61.50;;;;;;5060512;28;20035;-70
2022/07/15 06:59:04;;;;;;;0.85;0.40;;;19.70;61.30;;;;;;5071143;28;20036;-70
2022/07/15 07:01:30;;;;;;;1.13;1.02;;;19.70;61.00;;;;;;5055637;28;20456;-71
2022/07/15 07:03:56;;;;;;;1.48;0.70;;;19.90;60.80;;;;;;5041630;28;20033;-70
2022/07/15 07:06:22;;;;;;;0.63;0.45;;;19.90;60.50;;;;;;5045749;28;20039;-71
2022/07/15 07:08:48;;;;;;;0.80;0.40;;;19.90;60.40;;;;;;5043843;28;20098;-71
2022/07/15 07:11:17;;;;;;;0.77;0.40;;;20.00;60.30;;;;;;5067042;28;20047;-71
2022/07/15 07:13:42;;;;;;;0.30;0.30;;;20.00;59.90;;;;;;5060919;28;20024;-71
2022/07/15 07:16:08;;;;;;;0.30;0.30;;;20.10;59.50;;;;;;5056343;28;20045;-72
2022/07/15 07:18:35;;;;;;;0.30;0.20;;;20.10;58.90;;;;;;5054199;28;20033;-70
2022/07/15 07:21:01;;;;;;;0.25;0.25;;;20.20;58.60;;;;;;5038584;28;20531;-71
2022/07/15 07:23:27;;;;;;;0.80;0.50;;;20.30;57.60;;;;;;5052587;28;20033;-70
2022/07/15 07:25:57;;;;;;;0.45;0.35;;;20.30;56.80;;;;;;5043212;28;20025;-70
2022/07/15 07:28:22;;;;;;;1.63;0.47;;;20.40;57.00;;;;;;5047255;28;20036;-71
2022/07/15 07:30:50;;;;;;;0.30;0.30;;;20.40;55.90;;;;;;5054504;28;20024;-71
2022/07/15 07:33:16;;;;;;;0.40;0.30;;;20.40;55.80;;;;;;5051115;28;20470;-71
2022/07/15 07:35:43;;;;;;;0.40;0.30;;;20.50;54.80;;;;;;5055537;28;20017;-71
2022/07/15 07:38:09;;;;;;;0.40;0.40;;;20.60;54.40;;;;;;5049157;28;20028;-70
2022/07/15 07:40:35;;;;;;;0.52;0.20;;;20.60;54.40;;;;;;5048514;28;20534;-70
2022/07/15 07:43:01;;;;;;;0.20;0.20;;;20.70;54.30;;;;;;5050441;28;20033;-71
2022/07/15 07:45:28;;;;;;;0.38;0.38;;;20.70;52.90;;;;;;5049835;28;20033;-71
2022/07/15 07:47:54;;;;;;;2.10;0.20;;;20.80;52.30;;;;;;5044087;28;20021;-71
2022/07/15 07:50:20;;;;;;;0.20;0.20;;;20.80;52.40;;;;;;5045305;28;20041;-70
2022/07/15 07:52:46;;;;;;;0.52;0.52;;;21.00;52.60;;;;;;5046997;28;20034;-70
2022/07/15 07:55:14;;;;;;;0.13;0.13;;;21.10;52.10;;;;;;5063724;28;20038;-71
2022/07/15 07:57:51;;;;;;;0.20;0.20;;;21.20;52.20;;;;;;5033418;28;20021;-70
2022/07/15 08:00:17;;;;;;;0.10;0.10;;;21.40;51.80;;;;;;5062425;28;20033;-70
2022/07/15 08:02:43;;;;;;;1.30;0.60;;;21.40;51.60;;;;;;5039063;28;20128;-70
2022/07/15 08:05:09;;;;;;;0.40;0.40;;;21.40;51.40;;;;;;5040670;28;20108;-70
2022/07/15 08:07:35;;;;;;;0.10;0.10;;;21.30;51.40;;;;;;5039288;28;20025;-70
2022/07/15 08:10:03;;;;;;;0.20;0.20;;;21.20;51.40;;;;;;5039800;28;20025;-71
2022/07/15 08:12:28;;;;;;;0.40;0.40;;;21.10;51.60;;;;;;5039875;28;20104;-70
2022/07/15 08:14:54;;;;;;;0.25;0.25;;;21.00;51.40;;;;;;5037016;28;20230;-71
2022/07/15 08:17:21;;;;;;;0.82;0.60;;;21.10;51.60;;;;;;5045783;28;20040;-70
2022/07/15 08:19:47;;;;;;;0.20;0.20;;;21.20;51.40;;;;;;5044887;28;20138;-64
2022/07/15 08:22:13;;;;;;;0.40;0.40;;;21.30;51.00;;;;;;5041292;28;20057;-64
2022/07/15 08:24:39;;;;;;;0.30;0.30;;;21.40;50.70;;;;;;5041008;28;20037;-65
2022/07/15 08:27:04;;;;;;;0.20;0.20;;;21.50;50.50;;;;;;5041326;28;20456;-65
2022/07/15 08:29:30;;;;;;;0.13;0.13;;;21.50;50.30;;;;;;5048250;28;20123;-65
2022/07/15 08:31:56;;;;;;;0.20;0.20;;;21.50;50.30;;;;;;5047851;28;20041;-65
2022/07/15 08:34:21;;;;;;;0.20;0.20;;;21.40;50.10;;;;;;5044612;28;20064;-65
2022/07/15 08:36:47;;;;;;;0.25;0.25;;;21.40;50.20;;;;;;5044990;28;20060;-65
2022/07/15 08:39:13;;;;;;;0.20;0.20;;;21.40;50.10;;;;;;5052307;28;20068;-65
2022/07/15 08:41:38;;;;;;;0.20;0.20;;;21.50;49.90;;;;;;5047653;28;20044;-65
2022/07/15 08:44:05;;;;;;;0.20;0.20;;;21.80;48.50;;;;;;5042193;28;20043;-65
2022/07/15 08:46:33;;;;;;;0.10;0.10;;;22.10;48.60;;;;;;5041953;28;20570;-66
2022/07/15 08:49:07;;;;;;;0.20;0.20;;;22.40;48.40;;;;;;5039965;28;20029;-65
2022/07/15 08:51:38;;;;;;;0.35;0.30;;;22.70;47.80;;;;;;5038046;28;20029;-65
2022/07/15 08:54:04;;;;;;;0.60;0.40;;;22.80;46.50;;;;;;5050166;28;20112;-70
2022/07/15 08:56:33;;;;;;;0.68;0.60;;;22.70;46.70;;;;;;5039743;28;20446;-71
2022/07/15 08:59:01;;;;;;;0.43;0.35;;;22.70;47.30;;;;;;5030560;28;20124;-70
2022/07/15 09:01:28;;;;;;;0.75;0.20;;;22.60;47.70;;;;;;5034638;28;20594;-71
2022/07/15 09:03:54;;;;;;;0.30;0.30;;;22.40;48.20;;;;;;5042232;28;20124;-71
2022/07/15 09:06:33;;;;;;;0.63;0.32;;;22.20;48.50;;;;;;5050541;28;20063;-70
2022/07/15 09:08:59;;;;;;;0.20;0.20;;;22.00;49.10;;;;;;5043168;28;20498;-71
2022/07/15 09:11:29;;;;;;;0.35;0.35;;;21.90;49.30;;;;;;5046163;28;20029;-71
2022/07/15 09:13:58;;;;;;;0.80;0.35;;;21.90;49.20;;;;;;5057291;28;20140;-71
2022/07/15 09:16:25;;;;;;;0.43;0.43;;;21.90;49.20;;;;;;5054362;28;20057;-71
2022/07/15 09:18:51;;;;;;;0.30;0.30;;;21.90;49.00;;;;;;5037897;28;20044;-70
2022/07/15 09:21:25;;;;;;;0.55;0.50;;;21.90;48.70;;;;;;5038329;28;20048;-71
2022/07/15 09:23:53;;;;;;;0.20;0.20;;;22.00;48.80;;;;;;5050566;28;20044;-71
2022/07/15 09:26:28;;;;;;;0.47;0.47;;;22.30;48.70;;;;;;5039544;28;20128;-71
2022/07/15 09:28:55;;;;;;;0.70;0.30;;;22.50;48.20;;;;;;5041644;28;20163;-71
2022/07/15 09:34:24;;;;;;;0.73;0.40;;;22.80;47.80;;;;;;5042563;28;20036;-70
2022/07/15 09:36:54;;;;;;;0.20;0.20;;;22.80;47.50;;;;;;5042767;28;20025;-70
2022/07/15 09:39:24;;;;;;;0.25;0.25;;;22.70;47.10;;;;;;5054125;28;20037;-70
2022/07/15 09:41:52;;;;;;;0.38;0.38;;;22.50;47.50;;;;;;5040643;28;20045;-70
2022/07/15 09:44:22;;;;;;;0.73;0.45;;;22.50;47.70;;;;;;5041545;28;20366;-71
2022/07/15 09:47:01;;;;;;;0.73;0.30;;;22.40;47.70;;;;;;5041074;28;20063;-71
2022/07/15 09:49:29;;;;;;;0.20;0.20;;;22.30;48.00;;;;;;5039416;28;20106;-71
2022/07/15 09:51:56;;;;;;;0.20;0.20;;;22.40;48.10;;;;;;5043829;28;20033;-70
2022/07/15 09:54:30;;;;;;;0.30;0.30;;;22.50;48.10;;;;;;5040945;28;20385;-70
2022/07/15 09:57:01;;;;;;;0.35;0.35;;;22.80;48.00;;;;;;5041905;28;20537;-70
2022/07/15 09:59:29;;;;;;;1.38;0.47;;;22.90;47.20;;;;;;5044700;28;20033;-70
2022/07/15 10:01:55;;;;;;;0.30;0.30;;;22.90;47.30;;;;;;5046126;28;20131;-70
2022/07/15 10:04:23;;;;;;;0.60;0.35;;;22.90;47.70;;;;;;5037743;28;20459;-70
2022/07/15 10:06:52;;;;;;;0.30;0.30;;;22.90;47.80;;;;;;5033060;28;20024;-71
2022/07/15 10:09:30;;;;;;;1.52;1.00;;;22.90;47.90;;;;;;5045809;28;20116;-71
2022/07/15 10:12:03;;;;;;;1.00;0.75;;;22.90;48.00;;;;;;5033521;28;20143;-66
2022/07/15 10:14:35;;;;;;;0.30;0.30;;;22.90;48.20;;;;;;5037612;28;20083;-65
2022/07/15 10:17:21;;;;;;;0.70;0.50;;;22.80;48.30;;;;;;5037803;28;20067;-66
2022/07/15 10:20:02;;;;;;;0.57;0.57;;;22.70;48.10;;;;;;5034842;28;20292;-65
2022/07/15 10:22:45;;;;;;;1.33;0.50;;;22.70;48.30;;;;;;5032851;28;20033;-66
2022/07/15 10:25:20;;;;;;;1.25;0.40;;;22.70;48.40;;;;;;5038531;28;20037;-67
2022/07/15 10:28:19;;;;;;;0.82;0.30;;;22.70;48.30;;;;;;5042853;28;20043;-66
2022/07/15 10:30:45;;;;;;;1.35;0.65;;;22.70;48.20;;;;;;5055241;28;20472;-71
2022/07/15 10:33:19;;;;;;;0.90;0.40;;;22.80;47.50;;;;;;5036204;28;20030;-72
2022/07/15 10:35:50;;;;;;;0.40;0.40;;;23.10;47.50;;;;;;5038506;28;20107;-66
2022/07/15 10:38:31;;;;;;;1.77;0.30;;;23.50;47.20;;;;;;5043330;28;20071;-66
2022/07/15 10:41:01;;;;;;;0.57;0.40;;;23.80;46.60;;;;;;5050630;28;20365;-66
2022/07/15 10:43:46;;;;;;;0.50;0.50;;;23.90;45.70;;;;;;5047080;28;20116;-72
2022/07/15 10:46:17;;;;;;;0.55;0.40;;;24.00;46.00;;;;;;5050482;28;20043;-71
2022/07/15 10:48:53;;;;;;;0.43;0.43;;;24.20;45.80;;;;;;5051894;28;20025;-67
2022/07/15 10:51:36;;;;;;;0.30;0.30;;;24.20;45.50;;;;;;5045752;28;20514;-66
2022/07/15 10:54:10;;;;;;;0.35;0.35;;;24.10;45.60;;;;;;5044636;28;20690;-66
2022/07/15 10:56:44;;;;;;;0.20;0.20;;;24.10;45.50;;;;;;5037208;28;20076;-66
2022/07/15 10:59:14;;;;;;;0.73;0.50;;;23.90;45.70;;;;;;5043821;28;20266;-66
2022/07/15 11:01:45;;;;;;;0.30;0.30;;;23.70;45.20;;;;;;5038389;28;20555;-66
2022/07/15 11:04:22;;;;;;;0.40;0.25;;;23.70;45.60;;;;;;5038913;28;20125;-72
2022/07/15 11:07:04;;;;;;;1.55;0.40;;;23.60;45.80;;;;;;5042677;28;20029;-72
2022/07/15 11:10:01;;;;;;;0.30;0.30;;;23.60;46.10;;;;;;5044031;28;20060;-71
2022/07/15 11:12:32;;;;;;;0.20;0.20;;;23.60;46.20;;;;;;5039013;28;20032;-66
2022/07/15 11:15:00;;;;;;;0.25;0.25;;;23.60;46.00;;;;;;5059078;28;20029;-71
2022/07/15 11:17:28;;;;;;;0.38;0.38;;;23.60;45.80;;;;;;5033373;28;20484;-72
2022/07/15 11:20:01;;;;;;;1.00;0.50;;;23.60;45.90;;;;;;5035826;28;20457;-66
2022/07/15 11:22:28;;;;;;;0.22;0.22;;;23.50;46.00;;;;;;5036062;28;20122;-67
2022/07/15 11:24:55;;;;;;;0.70;0.70;;;23.50;46.10;;;;;;5056357;28;20059;-66
2022/07/15 11:27:26;;;;;;;0.50;0.50;;;23.40;46.30;;;;;;5041242;28;20064;-66
2022/07/15 11:29:58;;;;;;;1.50;0.40;;;23.50;46.50;;;;;;5046451;28;20036;-66
2022/07/15 11:32:24;;;;;;;;;;;23.50;46.10;;;;;;5044789;28;20476;-66
2022/07/15 11:34:53;;;;;;;1.65;0.38;;;23.60;45.90;;;;;;5039109;28;19919;-66
2022/07/15 11:37:33;;;;;;;1.02;0.80;;;23.60;45.90;;;;;;5036792;28;20037;-67
2022/07/15 11:45:48;;;;;;;0.40;0.38;;;24.40;44.80;;;;;;5038294;28;20115;-66
2022/07/15 11:48:14;;;;;;;0.35;0.28;;;25.00;44.40;;;;;;5036848;28;20025;-66
2022/07/15 11:50:56;;;;;;;1.48;0.40;;;25.50;42.20;;;;;;5041018;28;20484;-66
2022/07/15 11:53:22;;;;;;;0.40;0.40;;;25.50;42.40;;;;;;5035294;28;20021;-66
2022/07/15 11:55:58;;;;;;;0.35;0.35;;;25.70;42.60;;;;;;5035786;28;20499;-66
2022/07/15 11:58:36;;;;;;;0.30;0.30;;;25.60;42.10;;;;;;5041036;28;20054;-66
2022/07/15 12:01:13;;;;;;;0.43;0.40;;;25.70;42.40;;;;;;5042541;28;20045;-71
2022/07/15 12:03:49;;;;;;;1.75;0.45;;;26.00;42.50;;;;;;5040495;28;20029;-71
2022/07/15 12:06:24;;;;;;;0.30;0.30;;;26.20;41.50;;;;;;5033764;28;20082;-71
2022/07/15 12:08:52;;;;;;;1.00;0.50;;;26.40;41.40;;;;;;5036880;28;20029;-71
2022/07/15 12:11:38;;;;;;;0.82;0.50;;;26.50;40.50;;;;;;5032699;28;20156;-71
2022/07/15 12:14:06;;;;;;;0.90;0.55;;;26.20;40.10;;;;;;5038195;28;20033;-71
2022/07/15 12:16:42;;;;;;;0.40;0.30;;;25.90;40.60;;;;;;5041287;28;20056;-66
2022/07/15 12:19:13;;;;;;;3.33;0.60;;;25.60;40.80;;;;;;5038423;28;20549;-66
2022/07/15 12:21:41;;;;;;;0.98;0.80;;;25.60;41.80;;;;;;5052972;28;20052;-67
2022/07/15 12:24:17;;;;;;;2.47;0.40;;;25.50;41.50;;;;;;5038163;28;20039;-64
2022/07/15 12:26:49;;;;;;;3.22;0.52;;;25.10;41.70;;;;;;5051443;28;20037;-65
2022/07/15 12:29:17;;;;;;;0.50;0.45;;;24.90;42.10;;;;;;5047537;28;20086;-65
2022/07/15 12:31:50;;;;;;;0.40;0.30;;;24.70;43.00;;;;;;5042287;28;20369;-64
2022/07/15 12:34:16;;;;;;;2.65;0.70;;;24.70;42.30;;;;;;5058437;28;20049;-65
2022/07/15 12:36:42;;;;;;;1.75;0.50;;;24.60;42.70;;;;;;5044326;28;20049;-65
2022/07/15 12:39:18;;;;;;;0.43;0.43;;;24.60;42.90;;;;;;5060653;28;20044;-66
2022/07/15 12:41:56;;;;;;;0.40;0.40;;;24.50;42.90;;;;;;5041941;28;20037;-65
2022/07/15 12:44:22;;;;;;;0.50;0.35;;;24.50;43.10;;;;;;5047537;28;20036;-69
2022/07/15 12:46:55;;;;;;;0.43;0.30;;;24.60;43.20;;;;;;5061881;28;20353;-68
2022/07/15 12:49:39;;;;;;;1.15;0.20;;;24.50;43.20;;;;;;5045001;28;20030;-69
2022/07/15 12:52:25;;;;;;;0.52;0.52;;;24.60;43.50;;;;;;5047795;28;20069;-69
2022/07/15 12:54:53;;;;;;;0.30;0.30;;;24.50;43.40;;;;;;5043808;28;20021;-68
2022/07/15 12:57:31;;;;;;;0.30;0.30;;;24.50;43.40;;;;;;5055128;28;20029;-69
2022/07/15 13:00:01;;;;;;;0.20;0.20;;;24.30;43.40;;;;;;5035105;28;20559;-69
2022/07/15 13:02:28;;;;;;;0.40;0.40;;;24.20;43.80;;;;;;5038731;28;20044;-69
2022/07/15 13:04:54;;;;;;;0.50;0.50;;;24.10;43.80;;;;;;5036264;28;20041;-68